Saint Louis, MO

6:56 AM CDT on August 30, 2015 (GMT -0500)
Lambert-Saint Louis International | | Change Station
CLOSE
Current Station
Airport
Location: St. Louis,
Elevation: 564 ft
Nearby Weather Stations

Elev 564 ft 38.75 °N, 90.37 °W | Updated 5 minutes ago

Mostly Cloudy
Mostly Cloudy
73 °F
Feels Like 73 °F
N
4
Wind Variable Wind from SW

Today
High -- | Low -- °F
--% Chance of Precip.
Yesterday
High -- | Low -- °F
Precip. -- in
6:28 AM 7:34 PM
Full, 99% visible
Pressure 30.00 in
Visibility 10.0 miles
Clouds Scattered Clouds 2500 ft
Mostly Cloudy 7500 ft
Overcast 20000 ft
Dew Point 65 °F
Humidity 76%
Rainfall 0.00 in
Snow Depth Not available.
UV 0 out of 12
Pollen 10.60 out of 12
Air Quality Not available.
Flu Activity Not available.
METAR KSTL 301151Z 23003KT 10SM SCT025 BKN075 OVC200 23/18 A3004 RMK AO2 SLP159 10244 20228 T02280183 53009 $
Pressure 30.00 in
Visibility 10.0 miles
Clouds Scattered Clouds 2500 ft
Mostly Cloudy 7500 ft
Overcast 20000 ft
Dew Point 65 °F
Humidity 76%
Rainfall 0.00 in
Snow Depth Not available.
UV 0 out of 12
Pollen 10.60 out of 12
Air Quality Not available.
Flu Activity Not available.
METAR KSTL 301151Z 23003KT 10SM SCT025 BKN075 OVC200 23/18 A3004 RMK AO2 SLP159 10244 20228 T02280183 53009 $

10-Day Weather Forecast

×

Almanac

Astronomy

Aug. 30, 2015 Rise Set
Actual Time
Civil Twilight
Nautical Twilight
Astronomical Twilight
Moon
Length of Visible Light
Length of Day
Tomorrow will be .
, % of the Moon is Illuminated

Today's Extremes

State Highs State Lows

Community

WunderPhotos

Upload Photos

1,850,930 photos uploaded!

WunderBlogs® & News

Nearby

Air Quality

  Air Quality AQ Index Pollutant
Not available.

Snow Depth

Station Depth Elevation

Earthquake Activity

City Distance Mag. Time & Date
Minimum magnitude displayed is 2.5.

Coastal Water Temperatures

Place Temperature

Stations

Nearby Weather Stations

Station Location Temp. Windchill Dew Point Humidity Wind Precip. Elev Updated Type